Data at: 1403 UTC 23 Jan 2018

METAR for:KAFF (Air Force Academy Ai, CO, US)
Text:KAFF 231358Z AUTO 05003KT 10SM CLR M08/M17 A3014 RMK AO2 SLP270 T10791168
Temperature: -7.9°C ( 18°F)
Dewpoint:-16.8°C ( 2°F) [RH = 49%]
Pressure (altimeter):30.14 inches Hg (1020.7 mb) [Sea level pressure: 1027.0 mb]
Winds:from the NE (50 degrees) at 3 MPH (3 knots; 1.5 m/s)
Visibility:10 or more sm (16+ km)
Ceiling:at least 12,000 feet AGL
Clouds:sky clear below 12,000 feet AGL
QC Flag:automated observation with no human augmentation
Text:KAFF 231258Z AUTO 01005KT 10SM CLR M11/M17 A3013 RMK AO2 SLP272 T11081171
Temperature:-10.8°C ( 13°F)
Dewpoint:-17.1°C ( 1°F) [RH = 60%]
Pressure (altimeter):30.13 inches Hg (1020.4 mb) [Sea level pressure: 1027.2 mb]
Winds:from the N (10 degrees) at 6 MPH (5 knots; 2.6 m/s)
Visibility:10 or more sm (16+ km)
Ceiling:at least 12,000 feet AGL
Clouds:sky clear below 12,000 feet AGL
QC Flag:automated observation with no human augmentation
Text:KAFF 231158Z AUTO 02004KT 10SM CLR M13/M18 A3013 RMK AO2 SLP260 T11341181 11012 21136 52005
Temperature:-13.4°C ( 8°F)
Dewpoint:-18.1°C ( -1°F) [RH = 68%]
Pressure (altimeter):30.13 inches Hg (1020.4 mb) [Sea level pressure: 1026.0 mb]
Winds:from the NNE (20 degrees) at 5 MPH (4 knots; 2.1 m/s)
Visibility:10 or more sm (16+ km)
Ceiling:at least 12,000 feet AGL
Clouds:sky clear below 12,000 feet AGL
QC Flag:automated observation with no human augmentation
Text:KAFF 231058Z AUTO 03004KT 10SM CLR M12/M17 A3012 RMK AO2 SLP251 T11161169
Temperature:-11.6°C ( 11°F)
Dewpoint:-16.9°C ( 2°F) [RH = 65%]
Pressure (altimeter):30.12 inches Hg (1020.1 mb) [Sea level pressure: 1025.1 mb]
Winds:from the NNE (30 degrees) at 5 MPH (4 knots; 2.1 m/s)
Visibility:10 or more sm (16+ km)
Ceiling:at least 12,000 feet AGL
Clouds:sky clear below 12,000 feet AGL
QC Flag:automated observation with no human augmentation
Text:KAFF 230958Z AUTO 00000KT 10SM CLR M10/M17 A3012 RMK AO2 SLP239 T10981170
Temperature: -9.8°C ( 14°F)
Dewpoint:-17.0°C ( 1°F) [RH = 56%]
Pressure (altimeter):30.12 inches Hg (1020.1 mb) [Sea level pressure: 1023.9 mb]
Winds:calm
Visibility:10 or more sm (16+ km)
Ceiling:at least 12,000 feet AGL
Clouds:sky clear below 12,000 feet AGL
QC Flag:automated observation with no human augmentation
Text:KAFF 230858Z AUTO 00000KT 10SM CLR M08/M16 A3011 RMK AO2 SLP229 T10761156 53006
Temperature: -7.6°C ( 18°F)
Dewpoint:-15.6°C ( 4°F) [RH = 53%]
Pressure (altimeter):30.11 inches Hg (1019.7 mb) [Sea level pressure: 1022.9 mb]
Winds:calm
Visibility:10 or more sm (16+ km)
Ceiling:at least 12,000 feet AGL
Clouds:sky clear below 12,000 feet AGL
QC Flag:automated observation with no human augmentation
Text:KAFF 230758Z AUTO 00000KT 10SM CLR M04/M16 A3010 RMK AO2 SLP214 T10421161
Temperature: -4.2°C ( 24°F)
Dewpoint:-16.1°C ( 3°F) [RH = 39%]
Pressure (altimeter):30.10 inches Hg (1019.4 mb) [Sea level pressure: 1021.4 mb]
Winds:calm
Visibility:10 or more sm (16+ km)
Ceiling:at least 12,000 feet AGL
Clouds:sky clear below 12,000 feet AGL
QC Flag:automated observation with no human augmentation
Text:KAFF 230658Z AUTO 08003KT 10SM FEW110 M04/M14 A3008 RMK AO2 SLP207 T10441143 400321126
Temperature: -4.4°C ( 24°F)
Dewpoint:-14.3°C ( 6°F) [RH = 46%]
Pressure (altimeter):30.08 inches Hg (1018.7 mb) [Sea level pressure: 1020.7 mb]
Winds:from the E (80 degrees) at 3 MPH (3 knots; 1.5 m/s)
Visibility:10 or more sm (16+ km)
Ceiling:at least 12,000 feet AGL
Clouds: few clouds at 11000 feet AGL
QC Flag:automated observation with no human augmentation
Text:KAFF 230558Z AUTO 00000KT 10SM BKN110 BKN130 M04/M14 A3009 RMK AO2 SLP216 T10361141 10010 21056 52009
Temperature: -3.6°C ( 26°F)
Dewpoint:-14.1°C ( 7°F) [RH = 44%]
Pressure (altimeter):30.09 inches Hg (1019.0 mb) [Sea level pressure: 1021.6 mb]
Winds:calm
Visibility:10 or more sm (16+ km)
Ceiling:11000 feet AGL
Clouds: broken clouds at 11000 feet AGL, broken clouds at 13000 feet AGL
QC Flag:automated observation with no human augmentation
Text:KAFF 230458Z AUTO 00000KT 10SM OVC100 M04/M13 A3008 RMK AO2 SLP219 T10441128
Temperature: -4.4°C ( 24°F)
Dewpoint:-12.8°C ( 9°F) [RH = 52%]
Pressure (altimeter):30.08 inches Hg (1018.7 mb) [Sea level pressure: 1021.9 mb]
Winds:calm
Visibility:10 or more sm (16+ km)
Ceiling:10000 feet AGL
Clouds: overcast cloud deck at 10000 feet AGL
QC Flag:automated observation with no human augmentation
Text:KAFF 230358Z AUTO 03005KT 10SM BKN100 OVC120 M04/M13 A3006 RMK AO2 SLP217 T10421133
Temperature: -4.2°C ( 24°F)
Dewpoint:-13.3°C ( 8°F) [RH = 49%]
Pressure (altimeter):30.06 inches Hg (1018.0 mb) [Sea level pressure: 1021.7 mb]
Winds:from the NNE (30 degrees) at 6 MPH (5 knots; 2.6 m/s)
Visibility:10 or more sm (16+ km)
Ceiling:10000 feet AGL
Clouds: broken clouds at 10000 feet AGL, overcast cloud deck at 12000 feet AGL
QC Flag:automated observation with no human augmentation
Text:KAFF 230258Z AUTO 00000KT 10SM OVC140 M02/M17 A3006 RMK AO2 SLP223 T10181171 50004
Temperature: -1.8°C ( 29°F)
Dewpoint:-17.1°C ( 1°F) [RH = 30%]
Pressure (altimeter):30.06 inches Hg (1018.0 mb) [Sea level pressure: 1022.3 mb]
Winds:calm
Visibility:10 or more sm (16+ km)
Ceiling:14000 feet AGL
Clouds: overcast cloud deck at 14000 feet AGL
QC Flag:automated observation with no human augmentation
Text:KAFF 230158Z AUTO 34006KT 10SM BKN150 M05/M14 A3006 RMK AO2 SLP235 T10531139
Temperature: -5.3°C ( 22°F)
Dewpoint:-13.9°C ( 7°F) [RH = 51%]
Pressure (altimeter):30.06 inches Hg (1018.0 mb) [Sea level pressure: 1023.5 mb]
Winds:from the NNW (340 degrees) at 7 MPH (6 knots; 3.1 m/s)
Visibility:10 or more sm (16+ km)
Ceiling:15000 feet AGL
Clouds: broken clouds at 15000 feet AGL
QC Flag:automated observation with no human augmentation
Text:KAFF 230058Z AUTO 36004KT 10SM CLR M04/M16 A3005 RMK AO2 SLP226 T10441157
Temperature: -4.4°C ( 24°F)
Dewpoint:-15.7°C ( 4°F) [RH = 41%]
Pressure (altimeter):30.05 inches Hg (1017.7 mb) [Sea level pressure: 1022.6 mb]
Winds:from the N (360 degrees) at 5 MPH (4 knots; 2.1 m/s)
Visibility:10 or more sm (16+ km)
Ceiling:at least 12,000 feet AGL
Clouds:sky clear below 12,000 feet AGL
QC Flag:automated observation with no human augmentation
Text:KAFF 222358Z AUTO 00000KT 10SM CLR 01/M17 A3004 RMK AO2 SLP210 T00111168 10032 20010 52022
Temperature: 1.1°C ( 34°F)
Dewpoint:-16.8°C ( 2°F) [RH = 25%]
Pressure (altimeter):30.04 inches Hg (1017.4 mb) [Sea level pressure: 1021.0 mb]
Winds:calm
Visibility:10 or more sm (16+ km)
Ceiling:at least 12,000 feet AGL
Clouds:sky clear below 12,000 feet AGL
QC Flag:automated observation with no human augmentation
Text:KAFF 222258Z AUTO 36009KT 10SM CLR 02/M14 A3001 RMK AO2 SLP200 T00241143
Temperature: 2.4°C ( 36°F)
Dewpoint:-14.3°C ( 6°F) [RH = 28%]
Pressure (altimeter):30.01 inches Hg (1016.3 mb) [Sea level pressure: 1020.0 mb]
Winds:from the N (360 degrees) at 10 MPH (9 knots; 4.6 m/s)
Visibility:10 or more sm (16+ km)
Ceiling:at least 12,000 feet AGL
Clouds:sky clear below 12,000 feet AGL
QC Flag:automated observation with no human augmentation
Text:KAFF 222158Z AUTO 36013KT 10SM CLR 03/M15 A2998 RMK AO2 SLP195 T00321150
Temperature: 3.2°C ( 38°F)
Dewpoint:-15.0°C ( 5°F) [RH = 25%]
Pressure (altimeter):29.98 inches Hg (1015.3 mb) [Sea level pressure: 1019.5 mb]
Winds:from the N (360 degrees) at 15 MPH (13 knots; 6.7 m/s)
Visibility:10 or more sm (16+ km)
Ceiling:at least 12,000 feet AGL
Clouds:sky clear below 12,000 feet AGL
QC Flag:automated observation with no human augmentation
Text:KAFF 222058Z AUTO 35014G22KT 10SM CLR 03/M15 A2996 RMK AO2 PK WND 35026/1959 SLP188 T00321155 55010
Temperature: 3.2°C ( 38°F)
Dewpoint:-15.5°C ( 4°F) [RH = 24%]
Pressure (altimeter):29.96 inches Hg (1014.6 mb) [Sea level pressure: 1018.8 mb]
Winds:from the N (350 degrees) at 16 MPH (14 knots; 7.2 m/s) gusting to 25 MPH (22 knots; 11.3 m/s)
Visibility:10 or more sm (16+ km)
Ceiling:at least 12,000 feet AGL
Clouds:sky clear below 12,000 feet AGL
QC Flag:automated observation with no human augmentation
Text:KAFF 221958Z AUTO 35020KT 10SM CLR 03/M17 A2996 RMK AO2 PK WND 29030/02 SLP182 T00311166
Temperature: 3.1°C ( 38°F)
Dewpoint:-16.6°C ( 2°F) [RH = 22%]
Pressure (altimeter):29.96 inches Hg (1014.6 mb) [Sea level pressure: 1018.2 mb]
Winds:from the N (350 degrees) at 23 MPH (20 knots; 10.3 m/s)
Visibility:10 or more sm (16+ km)
Ceiling:at least 12,000 feet AGL
Clouds:sky clear below 12,000 feet AGL
QC Flag:automated observation with no human augmentation
Text:KAFF 221858Z AUTO 33018G25KT 10SM CLR 03/M15 A2997 RMK AO2 PK WND 32037/46 SLP179 T00301151
Temperature: 3.0°C ( 37°F)
Dewpoint:-15.1°C ( 5°F) [RH = 25%]
Pressure (altimeter):29.97 inches Hg (1015.0 mb) [Sea level pressure: 1017.9 mb]
Winds:from the NNW (330 degrees) at 21 MPH (18 knots; 9.3 m/s) gusting to 29 MPH (25 knots; 12.9 m/s)
Visibility:10 or more sm (16+ km)
Ceiling:at least 12,000 feet AGL
Clouds:sky clear below 12,000 feet AGL
QC Flag:automated observation with no human augmentation
Text:KAFF 221758Z AUTO 31015G26KT 10SM CLR 02/M16 A3000 RMK AO2 SLP190 T00191156 10019 21076 51010
Temperature: 1.9°C ( 35°F)
Dewpoint:-15.6°C ( 4°F) [RH = 26%]
Pressure (altimeter):30.00 inches Hg (1016.0 mb) [Sea level pressure: 1019.0 mb]
Winds:from the NW (310 degrees) at 17 MPH (15 knots; 7.7 m/s) gusting to 30 MPH (26 knots; 13.4 m/s)
Visibility:10 or more sm (16+ km)
Ceiling:at least 12,000 feet AGL
Clouds:sky clear below 12,000 feet AGL
QC Flag:automated observation with no human augmentation
Text:KAFF 221658Z AUTO 31014G24KT 10SM CLR 00/M17 A3000 RMK AO2 PK WND 30027/43 SLP196 T00001173
Temperature: 0.0°C ( 32°F)
Dewpoint:-17.3°C ( 1°F) [RH = 26%]
Pressure (altimeter):30.00 inches Hg (1016.0 mb) [Sea level pressure: 1019.6 mb]
Winds:from the NW (310 degrees) at 16 MPH (14 knots; 7.2 m/s) gusting to 28 MPH (24 knots; 12.3 m/s)
Visibility:10 or more sm (16+ km)
Ceiling:at least 12,000 feet AGL
Clouds:sky clear below 12,000 feet AGL
QC Flag:automated observation with no human augmentation
Text:KAFF 221558Z 33012KT 10SM CLR M02/M19 A2998 RMK AO2A SLP195 T10181188
Temperature: -1.8°C ( 29°F)
Dewpoint:-18.8°C ( -2°F) [RH = 26%]
Pressure (altimeter):29.98 inches Hg (1015.3 mb) [Sea level pressure: 1019.5 mb]
Winds:from the NNW (330 degrees) at 14 MPH (12 knots; 6.2 m/s)
Visibility:10 or more sm (16+ km)
Ceiling:at least 12,000 feet AGL
Clouds:sky clear below 12,000 feet AGL
Text:KAFF 221458Z 34010KT 10SM CLR M05/M19 A2996 RMK AO2A SLP200 T10531187 52015
Temperature: -5.3°C ( 22°F)
Dewpoint:-18.7°C ( -2°F) [RH = 34%]
Pressure (altimeter):29.96 inches Hg (1014.6 mb) [Sea level pressure: 1020.0 mb]
Winds:from the NNW (340 degrees) at 12 MPH (10 knots; 5.1 m/s)
Visibility:10 or more sm (16+ km)
Ceiling:at least 12,000 feet AGL
Clouds:sky clear below 12,000 feet AGL
Text:KAFF 221358Z 35009KT 10SM CLR M07/M19 A2995 RMK AO2A SLP202 T10691189
Temperature: -6.9°C ( 20°F)
Dewpoint:-18.9°C ( -2°F) [RH = 38%]
Pressure (altimeter):29.95 inches Hg (1014.3 mb) [Sea level pressure: 1020.2 mb]
Winds:from the N (350 degrees) at 10 MPH (9 knots; 4.6 m/s)
Visibility:10 or more sm (16+ km)
Ceiling:at least 12,000 feet AGL
Clouds:sky clear below 12,000 feet AGL
Text:KAFF 221258Z 36014G22KT 10SM CLR M06/M18 A2992 RMK AO2A SLP185 T10631180
Temperature: -6.3°C ( 21°F)
Dewpoint:-18.0°C ( -0°F) [RH = 39%]
Pressure (altimeter):29.92 inches Hg (1013.3 mb) [Sea level pressure: 1018.5 mb]
Winds:from the N (360 degrees) at 16 MPH (14 knots; 7.2 m/s) gusting to 25 MPH (22 knots; 11.3 m/s)
Visibility:10 or more sm (16+ km)
Ceiling:at least 12,000 feet AGL
Clouds:sky clear below 12,000 feet AGL
Text:KAFF 221158Z 35013KT 10SM CLR M07/M17 A2991 RMK AO2A SLP188 60000 70030 4/001 T10751174 11069 21126 50001
Temperature: -7.5°C ( 18°F)
Dewpoint:-17.4°C ( 1°F) [RH = 45%]
Pressure (altimeter):29.91 inches Hg (1013.0 mb) [Sea level pressure: 1018.8 mb]
Winds:from the N (350 degrees) at 15 MPH (13 knots; 6.7 m/s)
Visibility:10 or more sm (16+ km)
Ceiling:at least 12,000 feet AGL
Clouds:sky clear below 12,000 feet AGL
Text:KAFF 221058Z AUTO 34010KT 10SM CLR M08/M16 A2991 RMK AO2 SLP188 T10811160
Temperature: -8.1°C ( 17°F)
Dewpoint:-16.0°C ( 3°F) [RH = 53%]
Pressure (altimeter):29.91 inches Hg (1013.0 mb) [Sea level pressure: 1018.8 mb]
Winds:from the NNW (340 degrees) at 12 MPH (10 knots; 5.1 m/s)
Visibility:10 or more sm (16+ km)
Ceiling:at least 12,000 feet AGL
Clouds:sky clear below 12,000 feet AGL
QC Flag:automated observation with no human augmentation
Text:KAFF 220958Z AUTO 35009KT 10SM CLR M11/M15 A2991 RMK AO2 SLP194 T11151149
Temperature:-11.5°C ( 11°F)
Dewpoint:-14.9°C ( 5°F) [RH = 76%]
Pressure (altimeter):29.91 inches Hg (1013.0 mb) [Sea level pressure: 1019.4 mb]
Winds:from the N (350 degrees) at 10 MPH (9 knots; 4.6 m/s)
Visibility:10 or more sm (16+ km)
Ceiling:at least 12,000 feet AGL
Clouds:sky clear below 12,000 feet AGL
QC Flag:automated observation with no human augmentation
Text:KAFF 220858Z AUTO 35007KT 10SM CLR M11/M13 A2990 RMK AO2 SLP190 60000 T11081134 53006
Temperature:-10.8°C ( 13°F)
Dewpoint:-13.4°C ( 8°F) [RH = 81%]
Pressure (altimeter):29.90 inches Hg (1012.6 mb) [Sea level pressure: 1019.0 mb]
Winds:from the N (350 degrees) at 8 MPH (7 knots; 3.6 m/s)
Visibility:10 or more sm (16+ km)
Ceiling:at least 12,000 feet AGL
Clouds:sky clear below 12,000 feet AGL
QC Flag:automated observation with no human augmentation
Text:KAFF 220758Z AUTO 35011KT 10SM CLR M08/M12 A2989 RMK AO2 SNE01UPB01E04DZB04E05SNB05E08 SLP181 P0000 T10811118
Temperature: -8.1°C ( 17°F)
Dewpoint:-11.8°C ( 11°F) [RH = 75%]
Pressure (altimeter):29.89 inches Hg (1012.3 mb) [Sea level pressure: 1018.1 mb]
Winds:from the N (350 degrees) at 13 MPH (11 knots; 5.7 m/s)
Visibility:10 or more sm (16+ km)
Ceiling:at least 12,000 feet AGL
Clouds:sky clear below 12,000 feet AGL
QC Flag:automated observation with no human augmentation
Text:KAFF 220719Z AUTO 34014G20KT 10SM SCT017 M07/M11 A2988 RMK AO2 SNE01UPB01E04DZB04E05SNB05E08 SLP171
Temperature: -7.0°C ( 19°F)
Dewpoint:-11.0°C ( 12°F) [RH = 73%]
Pressure (altimeter):29.88 inches Hg (1011.9 mb) [Sea level pressure: 1017.1 mb]
Winds:from the NNW (340 degrees) at 16 MPH (14 knots; 7.2 m/s) gusting to 23 MPH (20 knots; 10.3 m/s)
Visibility:10 or more sm (16+ km)
Ceiling:at least 12,000 feet AGL
Clouds: scattered clouds at 1700 feet AGL
QC Flag:automated observation with no human augmentation
Text:KAFF 220709Z AUTO 34014KT 10SM BKN019 M07/M11 A2988 RMK AO2 SNE01UPB01E04DZB04E05SNB05E08 BKN V OVC SLP171
Temperature: -7.0°C ( 19°F)
Dewpoint:-11.0°C ( 12°F) [RH = 73%]
Pressure (altimeter):29.88 inches Hg (1011.9 mb) [Sea level pressure: 1017.1 mb]
Winds:from the NNW (340 degrees) at 16 MPH (14 knots; 7.2 m/s)
Visibility:10 or more sm (16+ km)
Ceiling:1900 feet AGL
Clouds: broken clouds at 1900 feet AGL
QC Flag:automated observation with no human augmentation
Text:KAFF 220708Z AUTO 34013KT 10SM -SN BKN019 M07/M11 A2988 RMK AO2 SNE01UPB01E04DZB04E05SNB05 BKN V OVC SLP171
Temperature: -7.0°C ( 19°F)
Dewpoint:-11.0°C ( 12°F) [RH = 73%]
Pressure (altimeter):29.88 inches Hg (1011.9 mb) [Sea level pressure: 1017.1 mb]
Winds:from the NNW (340 degrees) at 15 MPH (13 knots; 6.7 m/s)
Visibility:10 or more sm (16+ km)
Ceiling:1900 feet AGL
Clouds: broken clouds at 1900 feet AGL
Weather:-SN (light snow)
QC Flag:automated observation with no human augmentation
Text:KAFF 220658Z AUTO 33015KT 10SM -SN OVC021 M07/M11 A2988 RMK AO2 PK WND 32026/03 SNE15SNB19 SLP171 P0000 T10711106 410201071
Temperature: -7.1°C ( 19°F)
Dewpoint:-10.6°C ( 13°F) [RH = 76%]
Pressure (altimeter):29.88 inches Hg (1011.9 mb) [Sea level pressure: 1017.1 mb]
Winds:from the NNW (330 degrees) at 17 MPH (15 knots; 7.7 m/s)
Visibility:10 or more sm (16+ km)
Ceiling:2100 feet AGL
Clouds: overcast cloud deck at 2100 feet AGL
Weather:-SN (light snow)
QC Flag:automated observation with no human augmentation
Text:KAFF 220649Z AUTO 33014G21KT 6SM -SN OVC023 M07/M10 A2988 RMK AO2 SNE15SNB19 SLP171
Temperature: -7.0°C ( 19°F)
Dewpoint:-10.0°C ( 14°F) [RH = 79%]
Pressure (altimeter):29.88 inches Hg (1011.9 mb) [Sea level pressure: 1017.1 mb]
Winds:from the NNW (330 degrees) at 16 MPH (14 knots; 7.2 m/s) gusting to 24 MPH (21 knots; 10.8 m/s)
Visibility: 6 sm ( 10 km)
Ceiling:2300 feet AGL
Clouds: overcast cloud deck at 2300 feet AGL
Weather:-SN (light snow)
QC Flag:automated observation with no human augmentation
Text:KAFF 220639Z AUTO 33014G20KT 6SM -SN OVC027 M07/M10 A2989 RMK AO2 SNE15SNB19 SLP175
Temperature: -7.0°C ( 19°F)
Dewpoint:-10.0°C ( 14°F) [RH = 79%]
Pressure (altimeter):29.89 inches Hg (1012.3 mb) [Sea level pressure: 1017.5 mb]
Winds:from the NNW (330 degrees) at 16 MPH (14 knots; 7.2 m/s) gusting to 23 MPH (20 knots; 10.3 m/s)
Visibility: 6 sm ( 10 km)
Ceiling:2700 feet AGL
Clouds: overcast cloud deck at 2700 feet AGL
Weather:-SN (light snow)
QC Flag:automated observation with no human augmentation
Text:KAFF 220619Z AUTO 34016G24KT 7SM -SN OVC033 M07/M11 A2988 RMK AO2 SNE15SNB19 SLP171
Temperature: -7.0°C ( 19°F)
Dewpoint:-11.0°C ( 12°F) [RH = 73%]
Pressure (altimeter):29.88 inches Hg (1011.9 mb) [Sea level pressure: 1017.1 mb]
Winds:from the NNW (340 degrees) at 18 MPH (16 knots; 8.2 m/s) gusting to 28 MPH (24 knots; 12.3 m/s)
Visibility: 7 sm ( 11 km)
Ceiling:3300 feet AGL
Clouds: overcast cloud deck at 3300 feet AGL
Weather:-SN (light snow)
QC Flag:automated observation with no human augmentation
Text:KAFF 220615Z AUTO 33018G24KT 8SM FEW018 M07/M11 A2988 RMK AO2 SNE15 SLP171
Temperature: -7.0°C ( 19°F)
Dewpoint:-11.0°C ( 12°F) [RH = 73%]
Pressure (altimeter):29.88 inches Hg (1011.9 mb) [Sea level pressure: 1017.1 mb]
Winds:from the NNW (330 degrees) at 21 MPH (18 knots; 9.3 m/s) gusting to 28 MPH (24 knots; 12.3 m/s)
Visibility: 8 sm ( 13 km)
Ceiling:at least 12,000 feet AGL
Clouds: few clouds at 1800 feet AGL
QC Flag:automated observation with no human augmentation
Text:KAFF 220558Z AUTO 34016G23KT 10SM -SN OVC030 M07/M11 A2988 RMK AO2 PK WND 32027/0458 SNE38UPB38E57SNB57 SLP171 P0000 60000 T10701112 11066 21070 52005
Temperature: -7.0°C ( 19°F)
Dewpoint:-11.2°C ( 12°F) [RH = 72%]
Pressure (altimeter):29.88 inches Hg (1011.9 mb) [Sea level pressure: 1017.1 mb]
Winds:from the NNW (340 degrees) at 18 MPH (16 knots; 8.2 m/s) gusting to 26 MPH (23 knots; 11.8 m/s)
Visibility:10 or more sm (16+ km)
Ceiling:3000 feet AGL
Clouds: overcast cloud deck at 3000 feet AGL
Weather:-SN (light snow)
QC Flag:automated observation with no human augmentation
Text:KAFF 220528Z AUTO 34014KT 10SM -SN OVC034 M07/M11 A2988 RMK AO2 SLP171
Temperature: -7.0°C ( 19°F)
Dewpoint:-11.0°C ( 12°F) [RH = 73%]
Pressure (altimeter):29.88 inches Hg (1011.9 mb) [Sea level pressure: 1017.1 mb]
Winds:from the NNW (340 degrees) at 16 MPH (14 knots; 7.2 m/s)
Visibility:10 or more sm (16+ km)
Ceiling:3400 feet AGL
Clouds: overcast cloud deck at 3400 feet AGL
Weather:-SN (light snow)
QC Flag:automated observation with no human augmentation
Text:KAFF 220518Z AUTO 33015KT 8SM -SN OVC036 M07/M11 A2987 RMK AO2 SLP167
Temperature: -7.0°C ( 19°F)
Dewpoint:-11.0°C ( 12°F) [RH = 73%]
Pressure (altimeter):29.87 inches Hg (1011.6 mb) [Sea level pressure: 1016.7 mb]
Winds:from the NNW (330 degrees) at 17 MPH (15 knots; 7.7 m/s)
Visibility: 8 sm ( 13 km)
Ceiling:3600 feet AGL
Clouds: overcast cloud deck at 3600 feet AGL
Weather:-SN (light snow)
QC Flag:automated observation with no human augmentation
Text:KAFF 220458Z AUTO 34017G24KT 5SM -SN OVC033 M07/M10 A2987 RMK AO2 PK WND 29033/06 SLP167 P0000 T10701105
Temperature: -7.0°C ( 19°F)
Dewpoint:-10.5°C ( 13°F) [RH = 76%]
Pressure (altimeter):29.87 inches Hg (1011.6 mb) [Sea level pressure: 1016.7 mb]
Winds:from the NNW (340 degrees) at 20 MPH (17 knots; 8.7 m/s) gusting to 28 MPH (24 knots; 12.3 m/s)
Visibility: 5 sm ( 8 km)
Ceiling:3300 feet AGL
Clouds: overcast cloud deck at 3300 feet AGL
Weather:-SN (light snow)
QC Flag:automated observation with no human augmentation
Text:KAFF 220438Z AUTO 33017G24KT 5SM -SN OVC031 M07/M10 A2987 RMK AO2 SLP167
Temperature: -7.0°C ( 19°F)
Dewpoint:-10.0°C ( 14°F) [RH = 79%]
Pressure (altimeter):29.87 inches Hg (1011.6 mb) [Sea level pressure: 1016.7 mb]
Winds:from the NNW (330 degrees) at 20 MPH (17 knots; 8.7 m/s) gusting to 28 MPH (24 knots; 12.3 m/s)
Visibility: 5 sm ( 8 km)
Ceiling:3100 feet AGL
Clouds: overcast cloud deck at 3100 feet AGL
Weather:-SN (light snow)
QC Flag:automated observation with no human augmentation
Text:KAFF 220418Z AUTO 34017G31KT 4SM -SN OVC031 M07/M10 A2987 RMK AO2 SLP167
Temperature: -7.0°C ( 19°F)
Dewpoint:-10.0°C ( 14°F) [RH = 79%]
Pressure (altimeter):29.87 inches Hg (1011.6 mb) [Sea level pressure: 1016.7 mb]
Winds:from the NNW (340 degrees) at 20 MPH (17 knots; 8.7 m/s) gusting to 36 MPH (31 knots; 15.9 m/s)
Visibility: 4 sm ( 6 km)
Ceiling:3100 feet AGL
Clouds: overcast cloud deck at 3100 feet AGL
Weather:-SN (light snow)
QC Flag:automated observation with no human augmentation
Text:KAFF 220358Z AUTO 34019G24KT 5SM -SN OVC026 M07/M10 A2987 RMK AO2 PK WND 33029/42 SLP167 P0000 T10681098
Temperature: -6.8°C ( 20°F)
Dewpoint: -9.8°C ( 14°F) [RH = 79%]
Pressure (altimeter):29.87 inches Hg (1011.6 mb) [Sea level pressure: 1016.7 mb]
Winds:from the NNW (340 degrees) at 22 MPH (19 knots; 9.8 m/s) gusting to 28 MPH (24 knots; 12.3 m/s)
Visibility: 5 sm ( 8 km)
Ceiling:2600 feet AGL
Clouds: overcast cloud deck at 2600 feet AGL
Weather:-SN (light snow)
QC Flag:automated observation with no human augmentation
Text:KAFF 220338Z AUTO 33016G24KT 2 3/4SM -SN OVC024 M07/M10 A2987 RMK AO2 VIS 2 3/4V4 SLP167
Temperature: -7.0°C ( 19°F)
Dewpoint:-10.0°C ( 14°F) [RH = 79%]
Pressure (altimeter):29.87 inches Hg (1011.6 mb) [Sea level pressure: 1016.7 mb]
Winds:from the NNW (330 degrees) at 18 MPH (16 knots; 8.2 m/s) gusting to 28 MPH (24 knots; 12.3 m/s)
Visibility: 2.75 sm ( 4.43 km)
Ceiling:2400 feet AGL
Clouds: overcast cloud deck at 2400 feet AGL
Weather:-SN (light snow)
QC Flag:automated observation with no human augmentation
Text:KAFF 220318Z AUTO 33014KT 4SM -SN OVC024 M07/M10 A2986 RMK AO2 SLP164
Temperature: -7.0°C ( 19°F)
Dewpoint:-10.0°C ( 14°F) [RH = 79%]
Pressure (altimeter):29.86 inches Hg (1011.3 mb) [Sea level pressure: 1016.4 mb]
Winds:from the NNW (330 degrees) at 16 MPH (14 knots; 7.2 m/s)
Visibility: 4 sm ( 6 km)
Ceiling:2400 feet AGL
Clouds: overcast cloud deck at 2400 feet AGL
Weather:-SN (light snow)
QC Flag:automated observation with no human augmentation
Text:KAFF 220308Z AUTO 34016G25KT 2 3/4SM -SN OVC024 M07/M09 A2986 RMK AO2 SLP164
Temperature: -7.0°C ( 19°F)
Dewpoint: -9.0°C ( 16°F) [RH = 86%]
Pressure (altimeter):29.86 inches Hg (1011.3 mb) [Sea level pressure: 1016.4 mb]
Winds:from the NNW (340 degrees) at 18 MPH (16 knots; 8.2 m/s) gusting to 29 MPH (25 knots; 12.9 m/s)
Visibility: 2.75 sm ( 4.43 km)
Ceiling:2400 feet AGL
Clouds: overcast cloud deck at 2400 feet AGL
Weather:-SN (light snow)
QC Flag:automated observation with no human augmentation
Text:KAFF 220258Z AUTO 33017G24KT 2 3/4SM -SN OVC025 M07/M09 A2986 RMK AO2 PK WND 28032/36 VIS 2 1/4V2 3/4 SLP164 P0000 60000 T10681094 52012
Temperature: -6.8°C ( 20°F)
Dewpoint: -9.4°C ( 15°F) [RH = 82%]
Pressure (altimeter):29.86 inches Hg (1011.3 mb) [Sea level pressure: 1016.4 mb]
Winds:from the NNW (330 degrees) at 20 MPH (17 knots; 8.7 m/s) gusting to 28 MPH (24 knots; 12.3 m/s)
Visibility: 2.75 sm ( 4.43 km)
Ceiling:2500 feet AGL
Clouds: overcast cloud deck at 2500 feet AGL
Weather:-SN (light snow)
QC Flag:automated observation with no human augmentation
Text:KAFF 220238Z AUTO 34018G25KT 2 1/4SM -SN OVC027 M07/M09 A2986 RMK AO2 VIS 2V3 SLP164
Temperature: -7.0°C ( 19°F)
Dewpoint: -9.0°C ( 16°F) [RH = 86%]
Pressure (altimeter):29.86 inches Hg (1011.3 mb) [Sea level pressure: 1016.4 mb]
Winds:from the NNW (340 degrees) at 21 MPH (18 knots; 9.3 m/s) gusting to 29 MPH (25 knots; 12.9 m/s)
Visibility: 2.25 sm ( 3.62 km)
Ceiling:2700 feet AGL
Clouds: overcast cloud deck at 2700 feet AGL
Weather:-SN (light snow)
QC Flag:automated observation with no human augmentation
Text:KAFF 220228Z AUTO 34019G25KT 3SM -SN OVC026 M07/M09 A2986 RMK AO2 SLP164
Temperature: -7.0°C ( 19°F)
Dewpoint: -9.0°C ( 16°F) [RH = 86%]
Pressure (altimeter):29.86 inches Hg (1011.3 mb) [Sea level pressure: 1016.4 mb]
Winds:from the NNW (340 degrees) at 22 MPH (19 knots; 9.8 m/s) gusting to 29 MPH (25 knots; 12.9 m/s)
Visibility: 3 sm ( 5 km)
Ceiling:2600 feet AGL
Clouds: overcast cloud deck at 2600 feet AGL
Weather:-SN (light snow)
QC Flag:automated observation with no human augmentation